createdAt,value
2022-08-16T00:00:20.220Z,99488.13
2022-08-16T00:05:27.809Z,99486.69
2022-08-16T00:10:38.433Z,99478.91
2022-08-16T00:15:51.482Z,99476.41
2022-08-16T00:20:56.490Z,99479.75
2022-08-16T00:26:33.193Z,99482.44
2022-08-16T00:31:23.959Z,99479.63
2022-08-16T00:36:29.199Z,99476.50
2022-08-16T00:41:38.165Z,99484.88
2022-08-16T00:46:52.823Z,99481.94
2022-08-16T00:52:29.873Z,99489.47
2022-08-16T00:57:33.100Z,99486.13
2022-08-16T01:02:53.653Z,99493.06
2022-08-16T01:07:58.636Z,99491.34
2022-08-16T01:13:08.005Z,99486.06
2022-08-16T01:18:40.536Z,99499.84
2022-08-16T01:23:58.615Z,99502.09
2022-08-16T01:29:09.913Z,99507.94
2022-08-16T01:34:23.309Z,99507.88
2022-08-16T01:39:34.387Z,99504.72
2022-08-16T01:44:39.580Z,99505.97
2022-08-16T01:50:41.250Z,99497.63
2022-08-16T01:55:10.131Z,99514.16
2022-08-16T02:00:19.535Z,99510.31
2022-08-16T02:05:23.431Z,99509.88
2022-08-16T02:10:28.279Z,99520.63
2022-08-16T02:15:42.304Z,99514.13
2022-08-16T02:20:53.416Z,99508.88
2022-08-16T02:25:59.499Z,99514.53
2022-08-16T02:31:05.922Z,99509.72
2022-08-16T02:36:14.196Z,99500.53
2022-08-16T02:41:19.077Z,99509.16
2022-08-16T02:46:33.312Z,99507.06
2022-08-16T02:51:38.842Z,99515.53
2022-08-16T02:56:47.860Z,99516.59
2022-08-16T03:01:51.511Z,99513.00
2022-08-16T03:07:00.229Z,99516.34
2022-08-16T03:12:37.668Z,99514.69
2022-08-16T03:17:53.381Z,99503.97
2022-08-16T03:22:57.634Z,99504.81
2022-08-16T03:28:02.319Z,99510.03
2022-08-16T03:33:11.317Z,99501.03
2022-08-16T03:38:33.146Z,99505.41
2022-08-16T03:43:51.211Z,99498.53
2022-08-16T03:48:57.501Z,99506.47
2022-08-16T03:54:00.805Z,99510.66
2022-08-16T03:59:06.793Z,99515.38
2022-08-16T04:04:32.448Z,99509.91
2022-08-16T04:09:38.268Z,99511.03
2022-08-16T04:14:46.732Z,99512.22
2022-08-16T04:19:54.746Z,99511.84
2022-08-16T04:25:01.444Z,99523.38
2022-08-16T04:30:32.360Z,99526.91
2022-08-16T04:35:39.453Z,99523.50
2022-08-16T04:40:44.550Z,99534.38
2022-08-16T04:46:00.302Z,99545.06
2022-08-16T04:51:12.153Z,99552.19
2022-08-16T04:56:26.101Z,99565.56
2022-08-16T05:01:59.034Z,99566.88
2022-08-16T05:06:55.821Z,99559.75
2022-08-16T05:12:22.190Z,99572.31
2022-08-16T05:17:36.200Z,99567.06
2022-08-16T05:22:44.474Z,99571.34
2022-08-16T05:27:51.603Z,99575.03
2022-08-16T05:32:58.772Z,99581.13
2022-08-16T05:38:03.961Z,99576.00
2022-08-16T05:43:27.208Z,99578.94
2022-08-16T05:48:36.758Z,99580.47
2022-08-16T05:53:44.318Z,99579.72
2022-08-16T05:58:52.137Z,99588.34
2022-08-16T06:04:01.194Z,99591.78
2022-08-16T06:09:10.941Z,99599.34
2022-08-16T06:14:18.960Z,99601.91
2022-08-16T06:19:25.149Z,99605.31
2022-08-16T06:24:53.815Z,99607.19
2022-08-16T06:30:03.146Z,99608.06
2022-08-16T06:35:10.245Z,99613.91
2022-08-16T06:40:16.025Z,99612.47
2022-08-16T06:45:29.255Z,99616.88
2022-08-16T06:50:43.014Z,99616.00
2022-08-16T06:55:46.201Z,99616.41
2022-08-16T07:00:50.907Z,99613.22
2022-08-16T07:05:59.015Z,99621.34
2022-08-16T07:11:08.996Z,99620.06
2022-08-16T07:16:16.562Z,99628.28
2022-08-16T07:21:25.287Z,99625.72
2022-08-16T07:26:28.220Z,99625.84
2022-08-16T07:31:37.607Z,99630.41
2022-08-16T07:36:45.265Z,99640.28
2022-08-16T07:42:01.599Z,99632.16
2022-08-16T07:47:05.506Z,99642.09
2022-08-16T07:52:20.110Z,99638.81
2022-08-16T07:57:24.800Z,99645.25
2022-08-16T08:02:31.260Z,99642.91
2022-08-16T08:07:37.582Z,99653.28
2022-08-16T08:12:49.821Z,99663.94
2022-08-16T08:17:56.581Z,99664.53
2022-08-16T08:23:13.441Z,99664.50
2022-08-16T08:28:22.400Z,99668.06
2022-08-16T08:33:34.977Z,99669.94
2022-08-16T08:38:45.121Z,99678.69
2022-08-16T08:43:52.130Z,99676.22
2022-08-16T08:48:59.700Z,99678.78
2022-08-16T08:54:10.031Z,99689.44
2022-08-16T08:59:20.285Z,99687.28
2022-08-16T09:04:25.970Z,99690.25
2022-08-16T09:09:33.754Z,99690.25
2022-08-16T09:14:39.533Z,99696.97
2022-08-16T09:19:57.175Z,99685.16
2022-08-16T09:25:11.116Z,99691.66
2022-08-16T09:30:33.374Z,99690.91
2022-08-16T09:35:42.520Z,99696.38
2022-08-16T09:40:48.356Z,99688.91
2022-08-16T09:45:51.240Z,99681.94
2022-08-16T09:50:57.478Z,99685.84
2022-08-16T09:56:02.170Z,99677.94
2022-08-16T10:01:05.001Z,99682.28
2022-08-16T10:06:11.211Z,99683.19
2022-08-16T10:11:50.022Z,99679.53
2022-08-16T10:16:59.654Z,99678.00
2022-08-16T10:22:05.682Z,99680.97
2022-08-16T10:27:26.080Z,99674.63
2022-08-16T10:32:32.999Z,99685.00
2022-08-16T10:37:36.831Z,99679.13
2022-08-16T10:42:41.101Z,99675.38
2022-08-16T10:47:44.766Z,99682.94
2022-08-16T10:52:49.632Z,99687.97
2022-08-16T10:57:57.470Z,99677.44
2022-08-16T11:03:02.125Z,99685.66
2022-08-16T11:08:06.936Z,99684.56
2022-08-16T11:18:49.025Z,99670.94
2022-08-16T11:24:00.036Z,99680.84
2022-08-16T11:29:13.263Z,99691.94
2022-08-16T11:34:19.799Z,99679.28
2022-08-16T11:39:24.106Z,99678.38
2022-08-16T11:44:52.346Z,99689.25
2022-08-16T11:49:52.346Z,99676.28
2022-08-16T11:55:00.011Z,99672.91
2022-08-16T12:00:33.984Z,99679.25
2022-08-16T12:05:35.522Z,99679.22
2022-08-16T12:10:43.213Z,99690.25
2022-08-16T12:15:47.773Z,99686.13
2022-08-16T12:20:51.860Z,99670.50
2022-08-16T12:25:59.053Z,99672.94
2022-08-16T12:31:04.473Z,99682.97
2022-08-16T12:36:17.096Z,99696.34
2022-08-16T12:41:25.139Z,99688.31
2022-08-16T12:46:31.147Z,99685.81
2022-08-16T12:51:58.033Z,99676.28
2022-08-16T12:57:02.303Z,99671.50
2022-08-16T13:02:07.559Z,99679.16
2022-08-16T13:07:15.654Z,99676.63
2022-08-16T13:12:23.516Z,99674.66
2022-08-16T13:17:29.633Z,99669.28
2022-08-16T13:22:33.528Z,99666.53
2022-08-16T13:28:01.399Z,99676.63
2022-08-16T13:33:01.187Z,99665.66
2022-08-16T13:38:05.433Z,99669.44
2022-08-16T13:43:11.390Z,99664.13
2022-08-16T13:48:24.385Z,99659.44
2022-08-16T13:53:28.273Z,99659.59
2022-08-16T13:58:36.917Z,99664.44
2022-08-16T14:03:44.624Z,99654.03
2022-08-16T14:08:59.373Z,99653.78
2022-08-16T14:14:11.210Z,99655.00
2022-08-16T14:19:19.016Z,99659.50
2022-08-16T14:24:30.361Z,99646.88
2022-08-16T14:29:38.349Z,99644.72
2022-08-16T14:34:43.206Z,99641.75
2022-08-16T14:39:46.314Z,99640.66
2022-08-16T14:44:54.127Z,99637.63
2022-08-16T14:49:59.671Z,99643.16
2022-08-16T14:55:02.682Z,99635.69
2022-08-16T15:00:09.387Z,99638.88
2022-08-16T15:05:15.930Z,99646.63
2022-08-16T15:10:19.350Z,99642.63
2022-08-16T15:15:29.223Z,99643.47
2022-08-16T15:20:35.747Z,99644.72
2022-08-16T15:25:42.089Z,99639.25
2022-08-16T15:30:59.707Z,99638.34
2022-08-16T15:36:06.443Z,99635.13
2022-08-16T15:41:10.962Z,99629.94
2022-08-16T15:46:34.937Z,99628.69
2022-08-16T15:51:49.769Z,99633.88
2022-08-16T15:56:57.865Z,99632.53
2022-08-16T16:02:03.456Z,99628.97
2022-08-16T16:07:09.269Z,99639.09
2022-08-16T16:12:43.738Z,99641.28
2022-08-16T16:17:36.174Z,99641.94
2022-08-16T16:22:41.714Z,99645.91
2022-08-16T16:27:55.303Z,99646.91
2022-08-16T16:32:59.473Z,99650.88
2022-08-16T16:38:08.124Z,99644.63
2022-08-16T16:43:13.827Z,99646.69
2022-08-16T16:48:18.984Z,99650.59
2022-08-16T16:53:23.266Z,99657.53
2022-08-16T16:58:43.943Z,99658.41
2022-08-16T17:03:56.770Z,99663.97
2022-08-16T17:09:01.134Z,99665.34
2022-08-16T17:14:05.468Z,99661.13
2022-08-16T17:19:16.976Z,99651.88
2022-08-16T17:24:31.957Z,99666.44
2022-08-16T17:29:46.571Z,99665.22
2022-08-16T17:34:50.911Z,99666.31
2022-08-16T17:40:00.015Z,99662.13
2022-08-16T17:45:10.144Z,99672.28
2022-08-16T17:50:13.217Z,99672.13
2022-08-16T17:55:24.636Z,99681.84
2022-08-16T18:00:29.868Z,99683.41
2022-08-16T18:05:33.334Z,99688.75
2022-08-16T18:10:37.563Z,99693.34
2022-08-16T18:15:41.081Z,99694.09
2022-08-16T18:21:01.206Z,99701.19
2022-08-16T18:26:07.372Z,99703.91
2022-08-16T18:31:10.545Z,99703.00
2022-08-16T18:36:20.592Z,99705.59
2022-08-16T18:41:27.820Z,99719.53
2022-08-16T18:46:30.650Z,99719.09
2022-08-16T18:51:33.648Z,99718.81
2022-08-16T18:56:55.849Z,99730.25
2022-08-16T19:02:04.801Z,99735.06
2022-08-16T19:07:08.217Z,99744.88
2022-08-16T19:12:12.439Z,99745.16
2022-08-16T19:17:18.993Z,99749.69
2022-08-16T19:22:45.384Z,99757.34
2022-08-16T19:27:51.649Z,99760.25
2022-08-16T19:32:55.133Z,99774.34
2022-08-16T19:37:58.021Z,99771.97
2022-08-16T19:43:02.796Z,99782.47
2022-08-16T19:48:09.540Z,99788.81
2022-08-16T19:53:18.576Z,99791.06
2022-08-16T19:58:23.265Z,99792.16
2022-08-16T20:03:26.181Z,99795.63
2022-08-16T20:08:29.072Z,99795.34
2022-08-16T20:13:34.090Z,99795.06
2022-08-16T20:18:36.965Z,99798.75
2022-08-16T20:23:39.833Z,99803.38
2022-08-16T20:28:54.284Z,99809.66
2022-08-16T20:33:57.621Z,99804.84
2022-08-16T20:39:03.185Z,99807.97
2022-08-16T20:44:09.932Z,99814.75
2022-08-16T20:49:12.892Z,99828.28
2022-08-16T20:54:15.728Z,99828.41
2022-08-16T20:59:21.028Z,99823.91
2022-08-16T21:04:26.285Z,99824.13
2022-08-16T21:09:33.578Z,99841.03
2022-08-16T21:14:38.323Z,99842.84
2022-08-16T21:19:41.468Z,99837.28
2022-08-16T21:24:46.374Z,99846.63
2022-08-16T21:29:51.765Z,99850.75
2022-08-16T21:34:55.227Z,99849.34
2022-08-16T21:39:58.061Z,99859.56
2022-08-16T21:45:02.528Z,99856.63
2022-08-16T21:50:06.015Z,99856.63
2022-08-16T21:55:09.664Z,99856.44
2022-08-16T22:00:15.347Z,99866.38
2022-08-16T22:05:18.321Z,99872.91
2022-08-16T22:11:06.603Z,99868.47
2022-08-16T22:15:47.249Z,99872.06
2022-08-16T22:20:50.716Z,99869.13
2022-08-16T22:25:55.758Z,99866.88
2022-08-16T22:31:01.044Z,99873.19
2022-08-16T22:36:05.764Z,99872.78
2022-08-16T22:41:08.483Z,99876.59
2022-08-16T22:46:12.640Z,99877.03
2022-08-16T22:51:15.439Z,99881.34
2022-08-16T22:56:18.680Z,99875.47
2022-08-16T23:01:25.168Z,99873.78
2022-08-16T23:06:27.917Z,99867.09
2022-08-16T23:11:30.695Z,99867.94
2022-08-16T23:16:35.142Z,99874.03
2022-08-16T23:21:40.729Z,99869.41
2022-08-16T23:26:48.482Z,99865.63
2022-08-16T23:31:54.376Z,99863.72
2022-08-16T23:36:57.732Z,99869.19
2022-08-16T23:42:00.743Z,99863.09
2022-08-16T23:47:06.147Z,99869.03
2022-08-16T23:52:09.857Z,99855.09
2022-08-16T23:57:12.669Z,99854.50
